createdAt,value
2018-07-11T00:02:14.442Z,84.71
2018-07-11T00:04:43.476Z,84.83
2018-07-11T00:07:12.512Z,83.55
2018-07-11T00:09:41.253Z,83.55
2018-07-11T00:12:09.883Z,84.28
2018-07-11T00:14:38.520Z,84.22
2018-07-11T00:17:11.276Z,83.85
2018-07-11T00:19:40.002Z,83.75
2018-07-11T00:22:09.187Z,83.62
2018-07-11T00:24:37.994Z,83.95
2018-07-11T00:27:07.832Z,84.64
2018-07-11T00:29:36.490Z,85.15
2018-07-11T00:32:05.155Z,85.19
2018-07-11T00:34:33.838Z,85.60
2018-07-11T00:37:02.575Z,85.38
2018-07-11T00:39:31.657Z,84.98
2018-07-11T00:42:00.325Z,85.55
2018-07-11T00:44:29.058Z,85.15
2018-07-11T00:46:57.752Z,85.86
2018-07-11T00:49:26.420Z,86.00
2018-07-11T00:51:55.380Z,87.01
2018-07-11T00:54:24.030Z,86.59
2018-07-11T00:56:52.692Z,85.89
2018-07-11T00:59:27.215Z,86.24
2018-07-11T01:02:00.683Z,86.39
2018-07-11T01:04:29.666Z,85.36
2018-07-11T01:06:59.409Z,84.78
2018-07-11T01:09:28.430Z,85.41
2018-07-11T01:11:57.083Z,85.55
2018-07-11T01:14:25.735Z,84.98
2018-07-11T01:16:54.479Z,84.70
2018-07-11T01:19:24.453Z,85.48
2018-07-11T01:22:03.588Z,84.77
2018-07-11T01:24:32.814Z,85.08
2018-07-11T01:27:02.237Z,85.12
2018-07-11T01:29:30.885Z,84.32
2018-07-11T01:32:00.687Z,84.72
2018-07-11T01:34:29.391Z,85.17
2018-07-11T01:36:58.528Z,85.60
2018-07-11T01:39:27.241Z,85.54
2018-07-11T01:41:56.071Z,84.84
2018-07-11T01:44:24.695Z,85.05
2018-07-11T01:46:53.858Z,84.88
2018-07-11T01:49:22.505Z,85.72
2018-07-11T01:52:02.326Z,85.04
2018-07-11T01:54:31.074Z,85.66
2018-07-11T01:56:59.865Z,85.39
2018-07-11T01:59:32.849Z,85.19
2018-07-11T02:02:02.209Z,85.24
2018-07-11T02:04:32.298Z,85.13
2018-07-11T02:07:01.298Z,85.23
2018-07-11T02:09:31.069Z,85.04
2018-07-11T02:11:59.932Z,84.22
2018-07-11T02:14:28.634Z,84.51
2018-07-11T02:16:57.360Z,84.71
2018-07-11T02:19:26.085Z,84.61
2018-07-11T02:21:54.815Z,85.36
2018-07-11T02:24:25.014Z,85.30
2018-07-11T02:26:54.513Z,86.18
2018-07-11T02:29:24.044Z,86.12
2018-07-11T02:31:52.757Z,86.00
2018-07-11T02:34:27.364Z,86.05
2018-07-11T02:36:56.339Z,86.24
2018-07-11T02:39:25.614Z,86.77
2018-07-11T02:41:54.628Z,86.40
2018-07-11T02:44:23.361Z,86.38
2018-07-11T02:46:57.144Z,87.00
2018-07-11T02:49:26.121Z,86.27
2018-07-11T02:51:54.765Z,86.30
2018-07-11T02:54:23.489Z,86.61
2018-07-11T02:56:52.615Z,86.56
2018-07-11T02:59:21.308Z,86.47
2018-07-11T03:01:49.983Z,86.37
2018-07-11T03:04:18.674Z,86.20
2018-07-11T03:06:47.456Z,86.19
2018-07-11T03:09:16.556Z,85.90
2018-07-11T03:11:45.225Z,86.33
2018-07-11T03:14:13.909Z,86.23
2018-07-11T03:16:42.922Z,85.90
2018-07-11T03:19:11.604Z,85.40
2018-07-11T03:21:40.202Z,85.54
2018-07-11T03:24:09.202Z,85.26
2018-07-11T03:26:38.448Z,85.02
2018-07-11T03:29:07.167Z,85.53
2018-07-11T03:31:36.265Z,85.96
2018-07-11T03:34:05.169Z,84.47
2018-07-11T03:36:33.820Z,83.77
2018-07-11T03:39:02.710Z,84.75
2018-07-11T03:41:31.700Z,84.60
2018-07-11T03:44:00.356Z,84.54
2018-07-11T03:46:29.327Z,85.16
2018-07-11T03:48:57.984Z,85.10
2018-07-11T03:51:26.936Z,84.85
2018-07-11T03:53:56.200Z,84.47
2018-07-11T03:56:24.845Z,83.83
2018-07-11T03:58:54.283Z,83.91
2018-07-11T04:01:22.965Z,84.45
2018-07-11T04:03:51.705Z,84.30
2018-07-11T04:06:20.393Z,84.13
2018-07-11T04:08:49.157Z,83.43
2018-07-11T04:11:17.814Z,83.51
2018-07-11T04:13:46.461Z,83.22
2018-07-11T04:16:15.121Z,83.04
2018-07-11T04:18:43.704Z,82.85
2018-07-11T04:21:12.322Z,83.83
2018-07-11T04:23:41.075Z,83.44
2018-07-11T04:26:09.744Z,83.67
2018-07-11T04:28:38.428Z,84.25
2018-07-11T04:31:07.463Z,83.56
2018-07-11T04:33:36.153Z,83.81
2018-07-11T04:36:04.841Z,83.02
2018-07-11T04:38:33.565Z,83.60
2018-07-11T04:41:02.517Z,83.41
2018-07-11T04:43:31.480Z,83.62
2018-07-11T04:46:00.183Z,83.67
2018-07-11T04:48:28.861Z,82.99
2018-07-11T04:50:57.788Z,83.31
2018-07-11T04:53:27.759Z,84.20
2018-07-11T04:55:57.898Z,84.51
2018-07-11T04:58:26.945Z,84.08
2018-07-11T05:00:56.354Z,83.64
2018-07-11T05:03:25.489Z,84.26
2018-07-11T05:05:54.494Z,84.24
2018-07-11T05:08:24.085Z,84.36
2018-07-11T05:10:53.148Z,84.01
2018-07-11T05:13:22.148Z,84.43
2018-07-11T05:15:50.809Z,84.03
2018-07-11T05:18:19.487Z,82.92
2018-07-11T05:20:48.138Z,82.35
2018-07-11T05:23:17.166Z,82.20
2018-07-11T05:25:46.212Z,82.03
2018-07-11T05:28:14.828Z,81.90
2018-07-11T05:30:44.160Z,81.56
2018-07-11T05:33:13.131Z,81.81
2018-07-11T05:35:41.733Z,82.02
2018-07-11T05:38:10.802Z,81.40
2018-07-11T05:40:39.513Z,81.02
2018-07-11T05:43:08.139Z,81.34
2018-07-11T05:45:36.800Z,80.84
2018-07-11T05:48:06.016Z,80.96
2018-07-11T05:50:35.010Z,81.22
2018-07-11T05:53:03.664Z,81.37
2018-07-11T05:55:32.546Z,81.01
2018-07-11T05:58:01.177Z,80.78
2018-07-11T06:00:29.803Z,80.78
2018-07-11T06:02:58.487Z,81.07
2018-07-11T06:05:27.543Z,81.09
2018-07-11T06:07:56.674Z,80.22
2018-07-11T06:10:26.555Z,80.16
2018-07-11T06:12:55.485Z,80.84
2018-07-11T06:15:24.072Z,80.75
2018-07-11T06:17:52.741Z,81.59
2018-07-11T06:20:21.447Z,80.58
2018-07-11T06:22:50.253Z,79.52
2018-07-11T06:25:19.310Z,80.55
2018-07-11T06:27:47.968Z,77.61
2018-07-11T06:30:16.676Z,78.67
2018-07-11T06:32:45.387Z,79.25
2018-07-11T06:35:14.037Z,79.71
2018-07-11T06:37:42.975Z,79.29
2018-07-11T06:40:11.717Z,79.35
2018-07-11T06:42:40.752Z,78.19
2018-07-11T06:45:09.378Z,77.03
2018-07-11T06:47:38.066Z,77.52
2018-07-11T06:50:06.759Z,77.19
2018-07-11T06:52:35.449Z,76.78
2018-07-11T06:55:04.454Z,75.99
2018-07-11T06:57:33.201Z,74.96
2018-07-11T07:00:01.890Z,73.79
2018-07-11T07:02:30.562Z,72.87
2018-07-11T07:04:59.190Z,71.19
2018-07-11T07:07:27.946Z,70.14
2018-07-11T07:09:56.951Z,68.21
2018-07-11T07:12:25.552Z,68.56
2018-07-11T07:14:54.160Z,67.16
2018-07-11T07:17:22.811Z,65.37
2018-07-11T07:19:51.452Z,61.96
2018-07-11T07:22:20.381Z,63.65
2018-07-11T07:24:49.385Z,63.56
2018-07-11T07:27:18.045Z,63.71
2018-07-11T07:29:46.681Z,62.66
2018-07-11T07:32:15.662Z,62.94
2018-07-11T07:34:44.302Z,64.52
2018-07-11T07:37:12.961Z,65.84
2018-07-11T07:39:41.723Z,64.05
2018-07-11T07:42:10.286Z,62.62
2018-07-11T07:44:39.681Z,60.22
2018-07-11T07:47:12.547Z,61.08
2018-07-11T07:49:41.121Z,60.28
2018-07-11T07:52:09.841Z,58.29
2018-07-11T07:54:38.877Z,58.60
2018-07-11T07:57:08.006Z,58.96
2018-07-11T07:59:37.021Z,58.39
2018-07-11T08:02:06.034Z,56.62
2018-07-11T08:04:34.741Z,57.61
2018-07-11T08:07:03.635Z,58.06
2018-07-11T08:09:32.256Z,58.48
2018-07-11T08:12:01.010Z,58.80
2018-07-11T08:14:29.738Z,59.39
2018-07-11T08:16:58.464Z,60.49
2018-07-11T08:19:27.119Z,62.79
2018-07-11T08:21:55.823Z,61.98
2018-07-11T08:24:35.588Z,61.26
2018-07-11T08:28:16.932Z,61.85
2018-07-11T08:31:02.249Z,63.11
2018-07-11T08:33:42.396Z,59.87
2018-07-11T08:36:24.205Z,58.41
2018-07-11T08:41:17.925Z,58.57
2018-07-11T08:44:17.188Z,59.77
2018-07-11T08:49:01.491Z,58.59
2018-07-11T08:54:47.721Z,58.50
2018-07-11T08:57:28.653Z,58.99
2018-07-11T09:01:06.910Z,59.06
2018-07-11T09:05:57.336Z,60.03
2018-07-11T09:08:35.131Z,59.08
2018-07-11T09:11:19.693Z,55.53
2018-07-11T09:16:05.269Z,54.02
2018-07-11T09:18:59.217Z,51.25
2018-07-11T09:21:40.750Z,48.21
2018-07-11T09:24:39.082Z,44.68
2018-07-11T09:27:07.974Z,43.45
2018-07-11T09:29:37.988Z,43.15
2018-07-11T09:32:06.993Z,41.96
2018-07-11T09:34:35.645Z,42.52
2018-07-11T09:37:04.543Z,42.84
2018-07-11T09:39:33.826Z,42.49
2018-07-11T09:42:02.669Z,44.60
2018-07-11T09:44:31.526Z,44.58
2018-07-11T09:47:00.399Z,45.20
2018-07-11T09:49:32.621Z,45.05
2018-07-11T09:52:01.552Z,46.13
2018-07-11T09:54:30.569Z,47.56
2018-07-11T09:56:59.233Z,46.82
2018-07-11T09:59:28.429Z,46.59
2018-07-11T10:01:57.591Z,48.28
2018-07-11T10:04:27.448Z,47.39
2018-07-11T10:06:56.223Z,47.58
2018-07-11T10:09:24.850Z,47.92
2018-07-11T10:11:53.811Z,47.31
2018-07-11T10:14:23.041Z,47.56
2018-07-11T10:16:52.057Z,48.14
2018-07-11T10:19:20.811Z,47.69
2018-07-11T10:21:49.876Z,48.96
2018-07-11T10:24:18.639Z,49.71
2018-07-11T10:26:47.431Z,49.47
2018-07-11T10:29:16.582Z,48.36
2018-07-11T10:31:45.966Z,49.20
2018-07-11T10:34:15.534Z,48.43
2018-07-11T10:36:45.824Z,48.21
2018-07-11T10:39:14.908Z,47.14
2018-07-11T10:41:44.010Z,46.71
2018-07-11T10:44:12.767Z,45.56
2018-07-11T10:46:41.721Z,45.50
2018-07-11T10:49:10.513Z,46.17
2018-07-11T10:51:39.225Z,45.43
2018-07-11T10:54:08.011Z,46.33
2018-07-11T10:56:36.708Z,45.82
2018-07-11T10:59:05.394Z,44.76
2018-07-11T11:01:34.401Z,44.56
2018-07-11T11:04:03.235Z,45.22
2018-07-11T11:06:31.933Z,44.86
2018-07-11T11:09:00.666Z,45.21
2018-07-11T11:11:29.468Z,44.00
2018-07-11T11:13:58.203Z,43.84
2018-07-11T11:16:27.570Z,44.78
2018-07-11T11:18:56.615Z,45.51
2018-07-11T11:21:26.266Z,45.35
2018-07-11T11:23:55.119Z,43.13
2018-07-11T11:26:23.882Z,44.37
2018-07-11T11:28:52.534Z,43.46
2018-07-11T11:31:21.346Z,43.61
2018-07-11T11:33:50.114Z,43.98
2018-07-11T11:36:19.255Z,44.38
2018-07-11T11:38:48.093Z,43.81
2018-07-11T11:41:16.848Z,44.29
2018-07-11T11:43:45.539Z,43.85
2018-07-11T11:46:14.241Z,43.61
2018-07-11T11:48:43.279Z,42.63
2018-07-11T11:51:12.302Z,42.94
2018-07-11T11:53:41.409Z,41.32
2018-07-11T11:56:10.136Z,39.19
2018-07-11T11:58:39.344Z,39.66
2018-07-11T12:01:08.116Z,40.26
2018-07-11T12:03:37.137Z,39.13
2018-07-11T12:06:06.324Z,38.19
2018-07-11T12:08:35.410Z,37.58
2018-07-11T12:11:04.469Z,35.58
2018-07-11T12:13:33.142Z,31.76
2018-07-11T12:16:02.422Z,29.35
2018-07-11T12:18:31.249Z,25.14
2018-07-11T12:21:00.977Z,25.00
2018-07-11T12:23:29.960Z,24.65
2018-07-11T12:26:07.030Z,26.13
2018-07-11T12:28:36.091Z,26.28
2018-07-11T12:31:05.562Z,26.04
2018-07-11T12:33:34.459Z,26.17
2018-07-11T12:36:03.534Z,23.59
2018-07-11T12:38:32.620Z,21.56
2018-07-11T12:41:01.612Z,21.93
2018-07-11T12:43:30.383Z,23.21
2018-07-11T12:45:59.333Z,22.73
2018-07-11T12:48:33.121Z,20.06
2018-07-11T12:51:01.904Z,21.31
2018-07-11T12:53:30.974Z,22.52
2018-07-11T12:55:59.995Z,21.03
2018-07-11T12:58:28.858Z,19.87
2018-07-11T13:00:57.620Z,18.82
2018-07-11T13:03:26.658Z,18.03
2018-07-11T13:05:55.647Z,16.86
2018-07-11T13:08:24.681Z,16.66
2018-07-11T13:10:53.327Z,17.69
2018-07-11T13:13:22.227Z,15.62
2018-07-11T13:15:50.893Z,16.13
2018-07-11T13:18:19.879Z,17.29
2018-07-11T13:20:48.883Z,21.58
2018-07-11T13:23:17.559Z,24.77
2018-07-11T13:25:46.682Z,27.82
2018-07-11T13:28:15.381Z,30.37
2018-07-11T13:30:44.677Z,29.95
2018-07-11T13:33:13.760Z,31.25
2018-07-11T13:35:43.054Z,27.52
2018-07-11T13:38:12.445Z,22.45
2018-07-11T13:40:41.341Z,21.46
2018-07-11T13:43:11.494Z,19.59
2018-07-11T13:45:43.079Z,20.54
2018-07-11T13:48:11.852Z,19.56
2018-07-11T13:50:40.661Z,17.88
2018-07-11T13:53:09.734Z,15.41
2018-07-11T13:55:38.439Z,18.32
2018-07-11T13:58:07.718Z,21.87
2018-07-11T14:00:36.403Z,24.80
2018-07-11T14:03:05.558Z,28.73
2018-07-11T14:05:34.218Z,30.65
2018-07-11T14:08:03.624Z,32.27
2018-07-11T14:10:35.709Z,34.82
2018-07-11T14:13:04.765Z,35.38
2018-07-11T14:15:33.753Z,36.16
2018-07-11T14:18:02.947Z,35.95
2018-07-11T14:20:31.988Z,36.19
2018-07-11T14:23:08.668Z,37.04
2018-07-11T14:25:40.491Z,40.37
2018-07-11T14:28:09.557Z,48.63
2018-07-11T14:30:39.383Z,61.60
2018-07-11T14:33:09.759Z,59.15
2018-07-11T14:35:38.472Z,71.66
2018-07-11T14:38:08.494Z,68.32
2018-07-11T14:40:37.370Z,66.23
2018-07-11T14:43:06.110Z,74.82
2018-07-11T14:45:34.946Z,83.41
2018-07-11T14:48:10.522Z,87.67
2018-07-11T14:50:39.266Z,81.14
2018-07-11T14:53:08.015Z,80.11
2018-07-11T14:55:37.101Z,83.76
2018-07-11T14:58:05.914Z,85.76
2018-07-11T15:00:34.641Z,82.21
2018-07-11T15:03:03.590Z,82.76
2018-07-11T15:05:32.353Z,85.89
2018-07-11T15:08:01.990Z,84.47
2018-07-11T15:10:31.910Z,84.50
2018-07-11T15:13:01.347Z,82.99
2018-07-11T15:15:30.942Z,82.13
2018-07-11T15:18:00.399Z,81.92
2018-07-11T15:20:29.610Z,80.11
2018-07-11T15:22:58.394Z,80.55
2018-07-11T15:25:27.039Z,78.35
2018-07-11T15:27:56.149Z,74.05
2018-07-11T15:30:24.842Z,75.19
2018-07-11T15:32:53.851Z,74.61
2018-07-11T15:35:22.655Z,73.97
2018-07-11T15:37:51.436Z,74.26
2018-07-11T15:40:20.119Z,74.00
2018-07-11T15:42:49.242Z,73.41
2018-07-11T15:45:17.965Z,71.82
2018-07-11T15:47:47.758Z,70.09
2018-07-11T15:50:16.471Z,71.12
2018-07-11T15:52:45.215Z,68.50
2018-07-11T15:55:13.971Z,67.64
2018-07-11T15:57:50.291Z,68.35
2018-07-11T16:00:20.586Z,69.26
2018-07-11T16:02:50.434Z,67.96
2018-07-11T16:05:23.504Z,65.08
2018-07-11T16:07:54.880Z,65.26
2018-07-11T16:10:29.860Z,65.77
2018-07-11T16:12:58.906Z,66.46
2018-07-11T16:15:27.608Z,66.57
2018-07-11T16:17:56.419Z,66.55
2018-07-11T16:20:25.189Z,64.75
2018-07-11T16:22:53.914Z,62.11
2018-07-11T16:25:22.768Z,62.51
2018-07-11T16:27:51.598Z,63.37
2018-07-11T16:30:20.367Z,62.41
2018-07-11T16:32:49.144Z,62.05
2018-07-11T16:35:17.917Z,60.06
2018-07-11T16:37:46.658Z,60.12
2018-07-11T16:40:15.718Z,54.69
2018-07-11T16:42:45.125Z,55.15
2018-07-11T16:45:16.261Z,56.10
2018-07-11T16:47:46.040Z,56.52
2018-07-11T16:50:15.007Z,58.06
2018-07-11T16:52:44.847Z,59.29
2018-07-11T16:55:14.856Z,58.71
2018-07-11T16:57:52.964Z,58.32
2018-07-11T17:00:24.568Z,60.10
2018-07-11T17:03:26.408Z,58.15
2018-07-11T17:06:00.705Z,59.11
2018-07-11T17:08:33.876Z,60.02
2018-07-11T17:11:14.343Z,60.35
2018-07-11T17:13:47.297Z,59.77
2018-07-11T17:16:16.635Z,59.74
2018-07-11T17:18:47.718Z,61.26
2018-07-11T17:21:23.434Z,60.77
2018-07-11T17:23:54.846Z,61.53
2018-07-11T17:26:26.859Z,60.07
2018-07-11T17:28:58.196Z,61.17
2018-07-11T17:31:28.398Z,60.39
2018-07-11T17:33:57.742Z,59.53
2018-07-11T17:36:26.974Z,59.91
2018-07-11T17:38:55.773Z,59.66
2018-07-11T17:41:24.742Z,59.49
2018-07-11T17:43:54.118Z,60.29
2018-07-11T17:46:23.499Z,59.73
2018-07-11T17:49:17.669Z,60.33
2018-07-11T17:51:55.073Z,60.91
2018-07-11T17:54:28.797Z,60.29
2018-07-11T17:56:59.408Z,59.87
2018-07-11T17:59:38.635Z,59.52
2018-07-11T18:02:13.331Z,58.91
2018-07-11T18:04:49.016Z,60.08
2018-07-11T18:07:28.362Z,60.99
2018-07-11T18:10:04.922Z,61.42
2018-07-11T18:12:46.376Z,61.24
2018-07-11T18:16:46.902Z,59.94
2018-07-11T18:23:36.796Z,60.58
2018-07-11T18:26:18.524Z,58.85
2018-07-11T18:28:58.379Z,58.07
2018-07-11T18:31:37.361Z,57.39
2018-07-11T18:36:19.422Z,57.98
2018-07-11T18:38:55.119Z,57.57
2018-07-11T18:41:35.923Z,57.99
2018-07-11T18:44:22.939Z,58.05
2018-07-11T18:47:02.408Z,58.09
2018-07-11T18:49:37.222Z,57.67
2018-07-11T18:52:13.121Z,58.70
2018-07-11T18:57:08.874Z,60.06
2018-07-11T18:59:47.584Z,59.89
2018-07-11T19:02:30.739Z,60.03
2018-07-11T19:05:16.881Z,60.12
2018-07-11T19:08:56.555Z,60.55
2018-07-11T19:11:27.361Z,60.84
2018-07-11T19:14:04.315Z,60.69
2018-07-11T19:16:46.997Z,60.97
2018-07-11T19:19:21.041Z,61.07
2018-07-11T19:21:57.355Z,61.24
2018-07-11T19:24:36.665Z,61.31
2018-07-11T19:27:15.567Z,61.92
2018-07-11T19:30:06.067Z,61.93
2018-07-11T19:32:59.141Z,62.79
2018-07-11T19:35:40.866Z,62.87
2018-07-11T19:38:23.215Z,63.61
2018-07-11T19:41:32.799Z,63.42
2018-07-11T19:44:42.415Z,63.77
2018-07-11T19:47:22.914Z,64.25
2018-07-11T19:50:13.774Z,64.30
2018-07-11T19:53:27.520Z,65.07
2018-07-11T19:57:02.211Z,66.00
2018-07-11T19:59:31.091Z,66.63
2018-07-11T20:02:00.305Z,67.17
2018-07-11T20:04:29.289Z,66.94
2018-07-11T20:06:58.209Z,67.45
2018-07-11T20:09:27.223Z,67.64
2018-07-11T20:11:56.438Z,69.54
2018-07-11T20:14:25.492Z,70.42
2018-07-11T20:16:55.070Z,70.67
2018-07-11T20:19:24.333Z,72.38
2018-07-11T20:21:54.102Z,72.76
2018-07-11T20:24:22.965Z,73.26
2018-07-11T20:26:53.246Z,73.13
2018-07-11T20:29:21.991Z,72.48
2018-07-11T20:31:50.962Z,72.78
2018-07-11T20:34:19.813Z,73.01
2018-07-11T20:36:48.640Z,72.76
2018-07-11T20:39:17.487Z,73.70
2018-07-11T20:41:46.355Z,72.58
2018-07-11T20:44:17.663Z,73.40
2018-07-11T20:46:47.648Z,73.69
2018-07-11T20:49:21.399Z,73.98
2018-07-11T20:51:50.498Z,75.00
2018-07-11T20:54:19.255Z,79.24
2018-07-11T20:56:47.996Z,80.00
2018-07-11T20:59:27.788Z,81.31
2018-07-11T21:02:07.597Z,81.73
2018-07-11T21:07:01.589Z,82.90
2018-07-11T21:09:41.129Z,83.67
2018-07-11T21:12:27.026Z,85.02
2018-07-11T21:17:12.768Z,85.41
2018-07-11T21:19:41.485Z,85.98
2018-07-11T21:22:10.256Z,86.39
2018-07-11T21:24:38.956Z,87.29
2018-07-11T21:27:07.998Z,87.33
2018-07-11T21:29:36.765Z,86.38
2018-07-11T21:32:06.719Z,87.28
2018-07-11T21:34:35.401Z,87.45
2018-07-11T21:37:05.598Z,87.20
2018-07-11T21:39:34.646Z,88.96
2018-07-11T21:42:04.504Z,89.56
2018-07-11T21:44:33.443Z,89.56
2018-07-11T21:47:02.511Z,89.55
2018-07-11T21:49:31.270Z,90.24
2018-07-11T21:52:00.230Z,90.69
2018-07-11T21:54:29.318Z,89.62
2018-07-11T21:56:58.213Z,89.71
2018-07-11T21:59:27.142Z,90.66
2018-07-11T22:01:56.162Z,89.47
2018-07-11T22:04:24.826Z,89.90
2018-07-11T22:06:54.295Z,89.63
2018-07-11T22:09:23.332Z,90.00
2018-07-11T22:11:52.346Z,90.20
2018-07-11T22:14:21.262Z,89.91
2018-07-11T22:16:50.013Z,90.43
2018-07-11T22:19:18.837Z,90.16
2018-07-11T22:21:46.518Z,91.12
2018-07-11T22:24:13.870Z,91.25
2018-07-11T22:26:41.470Z,91.67
2018-07-11T22:29:08.791Z,91.69
2018-07-11T22:31:36.464Z,91.43
2018-07-11T22:34:04.174Z,91.34
2018-07-11T22:36:33.486Z,91.43
2018-07-11T22:39:07.182Z,91.62
2018-07-11T22:41:34.508Z,91.28
2018-07-11T22:44:03.066Z,91.38
2018-07-11T22:46:30.784Z,92.11
2018-07-11T22:48:58.107Z,92.21
2018-07-11T22:51:25.447Z,91.59
2018-07-11T22:53:52.830Z,91.67
2018-07-11T22:56:20.185Z,90.44
2018-07-11T22:58:47.776Z,90.35
2018-07-11T23:01:15.182Z,89.26
2018-07-11T23:03:42.523Z,89.10
2018-07-11T23:06:09.878Z,89.89
2018-07-11T23:08:37.244Z,89.09
2018-07-11T23:11:04.611Z,88.79
2018-07-11T23:13:31.945Z,88.29
2018-07-11T23:15:59.799Z,88.31
2018-07-11T23:18:27.100Z,88.29
2018-07-11T23:20:54.434Z,88.10
2018-07-11T23:23:22.398Z,88.65
2018-07-11T23:25:49.738Z,88.42
2018-07-11T23:28:17.050Z,87.92
2018-07-11T23:30:44.614Z,88.28
2018-07-11T23:33:11.995Z,88.57
2018-07-11T23:35:39.323Z,88.29
2018-07-11T23:38:06.946Z,87.94
2018-07-11T23:40:34.725Z,88.29
2018-07-11T23:43:02.059Z,87.92
2018-07-11T23:45:29.726Z,87.58
2018-07-11T23:47:57.339Z,88.28
2018-07-11T23:50:24.661Z,88.43
2018-07-11T23:52:52.080Z,87.48
2018-07-11T23:55:19.418Z,87.90
2018-07-11T23:57:46.743Z,87.43
